sensor_id;sensor_type;location;lat;lon;timestamp;pressure;altitude;pressure_sealevel;temperature;humidity
51123;BME280;37162;41.724;13.346;2022-08-01T00:01:46;96648.28;;;25.60;60.75
51123;BME280;37162;41.724;13.346;2022-08-01T00:04:12;96643.13;;;25.58;60.72
51123;BME280;37162;41.724;13.346;2022-08-01T00:06:37;96648.50;;;25.63;60.72
51123;BME280;37162;41.724;13.346;2022-08-01T00:09:03;96646.56;;;25.64;60.76
51123;BME280;37162;41.724;13.346;2022-08-01T00:11:28;96645.56;;;25.60;60.69
51123;BME280;37162;41.724;13.346;2022-08-01T00:13:53;96648.22;;;25.65;60.92
51123;BME280;37162;41.724;13.346;2022-08-01T00:16:19;96647.41;;;25.64;61.05
51123;BME280;37162;41.724;13.346;2022-08-01T00:18:48;96646.56;;;25.64;60.92
51123;BME280;37162;41.724;13.346;2022-08-01T00:21:14;96649.28;;;25.64;60.87
51123;BME280;37162;41.724;13.346;2022-08-01T00:23:40;96644.97;;;25.63;60.69
51123;BME280;37162;41.724;13.346;2022-08-01T00:26:05;96638.41;;;25.64;60.74
51123;BME280;37162;41.724;13.346;2022-08-01T00:28:30;96627.38;;;25.55;60.76
51123;BME280;37162;41.724;13.346;2022-08-01T00:30:56;96637.59;;;25.63;60.75
51123;BME280;37162;41.724;13.346;2022-08-01T00:33:21;96636.00;;;25.62;60.87
51123;BME280;37162;41.724;13.346;2022-08-01T00:35:47;96637.59;;;25.63;60.85
51123;BME280;37162;41.724;13.346;2022-08-01T00:38:12;96634.06;;;25.63;60.87
51123;BME280;37162;41.724;13.346;2022-08-01T00:40:38;96641.13;;;25.64;60.92
51123;BME280;37162;41.724;13.346;2022-08-01T00:43:03;96632.75;;;25.60;60.75
51123;BME280;37162;41.724;13.346;2022-08-01T00:45:29;96626.22;;;25.61;60.96
51123;BME280;37162;41.724;13.346;2022-08-01T00:47:54;96639.53;;;25.63;60.81
51123;BME280;37162;41.724;13.346;2022-08-01T00:50:19;96636.00;;;25.62;60.82
51123;BME280;37162;41.724;13.346;2022-08-01T00:52:45;96640.13;;;25.60;60.53
51123;BME280;37162;41.724;13.346;2022-08-01T00:55:12;96623.34;;;25.53;60.60
51123;BME280;37162;41.724;13.346;2022-08-01T00:57:38;96628.94;;;25.61;60.67
51123;BME280;37162;41.724;13.346;2022-08-01T01:00:05;96633.28;;;25.62;60.67
51123;BME280;37162;41.724;13.346;2022-08-01T01:02:32;96616.50;;;25.55;60.60
51123;BME280;37162;41.724;13.346;2022-08-01T01:04:58;96630.84;;;25.61;60.79
51123;BME280;37162;41.724;13.346;2022-08-01T01:07:36;96630.84;;;25.61;60.84
51123;BME280;37162;41.724;13.346;2022-08-01T01:10:30;96617.81;;;25.58;60.76
51123;BME280;37162;41.724;13.346;2022-08-01T01:15:42;96628.41;;;25.59;60.91
51123;BME280;37162;41.724;13.346;2022-08-01T01:18:16;96627.59;;;25.59;60.75
51123;BME280;37162;41.724;13.346;2022-08-01T01:20:52;96636.56;;;25.59;60.62
51123;BME280;37162;41.724;13.346;2022-08-01T01:29:16;96643.91;;;25.59;60.52
51123;BME280;37162;41.724;13.346;2022-08-01T01:34:13;96636.38;;;25.56;60.77
51123;BME280;37162;41.724;13.346;2022-08-01T01:36:39;96631.41;;;25.58;60.63
51123;BME280;37162;41.724;13.346;2022-08-01T01:39:07;96636.06;;;25.57;60.75
51123;BME280;37162;41.724;13.346;2022-08-01T01:41:33;96629.50;;;25.58;60.87
51123;BME280;37162;41.724;13.346;2022-08-01T01:44:02;96631.41;;;25.58;60.78
51123;BME280;37162;41.724;13.346;2022-08-01T01:46:31;96625.75;;;25.54;60.83
51123;BME280;37162;41.724;13.346;2022-08-01T01:48:58;96621.13;;;25.55;60.66
51123;BME280;37162;41.724;13.346;2022-08-01T01:51:25;96619.56;;;25.48;60.73
51123;BME280;37162;41.724;13.346;2022-08-01T01:53:53;96630.91;;;25.56;60.46
51123;BME280;37162;41.724;13.346;2022-08-01T01:56:20;96634.44;;;25.56;60.35
51123;BME280;37162;41.724;13.346;2022-08-01T01:58:48;96631.19;;;25.54;60.25
51123;BME280;37162;41.724;13.346;2022-08-01T02:01:15;96608.19;;;25.46;60.35
51123;BME280;37162;41.724;13.346;2022-08-01T02:03:43;96613.03;;;25.49;60.32
51123;BME280;37162;41.724;13.346;2022-08-01T02:06:11;96629.00;;;25.56;60.59
51123;BME280;37162;41.724;13.346;2022-08-01T02:08:40;96619.22;;;25.55;60.48
51123;BME280;37162;41.724;13.346;2022-08-01T02:11:07;96619.22;;;25.55;60.58
51123;BME280;37162;41.724;13.346;2022-08-01T02:14:06;96625.47;;;25.56;60.72
51123;BME280;37162;41.724;13.346;2022-08-01T02:16:40;96621.13;;;25.55;60.49
51123;BME280;37162;41.724;13.346;2022-08-01T02:19:06;96621.13;;;25.55;60.39
51123;BME280;37162;41.724;13.346;2022-08-01T02:21:45;96616.53;;;25.50;60.13
51123;BME280;37162;41.724;13.346;2022-08-01T02:27:01;96623.34;;;25.53;60.20
51123;BME280;37162;41.724;13.346;2022-08-01T02:29:37;96618.69;;;25.53;60.11
51123;BME280;37162;41.724;13.346;2022-08-01T02:32:06;96617.38;;;25.51;60.07
51123;BME280;37162;41.724;13.346;2022-08-01T02:34:34;96613.56;;;25.52;60.26
51123;BME280;37162;41.724;13.346;2022-08-01T02:37:02;96614.06;;;25.54;60.30
51123;BME280;37162;41.724;13.346;2022-08-01T02:39:30;96614.06;;;25.54;60.40
51123;BME280;37162;41.724;13.346;2022-08-01T02:41:58;96621.41;;;25.53;60.40
51123;BME280;37162;41.724;13.346;2022-08-01T02:44:30;96619.81;;;25.52;60.20
51123;BME280;37162;41.724;13.346;2022-08-01T02:47:03;96616.28;;;25.52;60.12
51123;BME280;37162;41.724;13.346;2022-08-01T02:49:35;96612.22;;;25.49;60.29
51123;BME280;37162;41.724;13.346;2022-08-01T02:52:04;96615.47;;;25.51;60.06
51123;BME280;37162;41.724;13.346;2022-08-01T02:54:32;96619.25;;;25.50;59.92
51123;BME280;37162;41.724;13.346;2022-08-01T02:56:58;96621.19;;;25.49;59.96
51123;BME280;37162;41.724;13.346;2022-08-01T02:59:26;96617.66;;;25.49;60.10
51123;BME280;37162;41.724;13.346;2022-08-01T03:01:56;96610.91;;;25.46;60.17
51123;BME280;37162;41.724;13.346;2022-08-01T03:04:24;96613.03;;;25.49;60.16
51123;BME280;37162;41.724;13.346;2022-08-01T03:06:53;96617.66;;;25.49;60.34
51123;BME280;37162;41.724;13.346;2022-08-01T03:09:19;96619.25;;;25.50;60.20
51123;BME280;37162;41.724;13.346;2022-08-01T03:11:46;96609.56;;;25.44;60.19
51123;BME280;37162;41.724;13.346;2022-08-01T03:14:13;96622.28;;;25.48;60.08
51123;BME280;37162;41.724;13.346;2022-08-01T03:16:42;96622.28;;;25.48;60.07
51123;BME280;37162;41.724;13.346;2022-08-01T03:19:11;96622.28;;;25.48;60.07
51123;BME280;37162;41.724;13.346;2022-08-01T03:21:39;96623.41;;;25.47;60.01
51123;BME280;37162;41.724;13.346;2022-08-01T03:24:06;96619.34;;;25.45;59.65
51123;BME280;37162;41.724;13.346;2022-08-01T03:26:34;96626.13;;;25.47;59.75
51123;BME280;37162;41.724;13.346;2022-08-01T03:29:06;96630.75;;;25.47;60.00
51123;BME280;37162;41.724;13.346;2022-08-01T03:31:34;96620.75;;;25.42;60.02
51123;BME280;37162;41.724;13.346;2022-08-01T03:34:00;96628.03;;;25.47;59.99
51123;BME280;37162;41.724;13.346;2022-08-01T03:36:28;96610.72;;;25.38;60.11
51123;BME280;37162;41.724;13.346;2022-08-01T03:38:57;96632.66;;;25.46;59.99
51123;BME280;37162;41.724;13.346;2022-08-01T03:41:26;96629.94;;;25.46;59.91
51123;BME280;37162;41.724;13.346;2022-08-01T03:44:05;96629.94;;;25.46;60.10
51123;BME280;37162;41.724;13.346;2022-08-01T03:46:38;96622.66;;;25.42;59.93
51123;BME280;37162;41.724;13.346;2022-08-01T03:49:15;96634.84;;;25.44;59.75
51123;BME280;37162;41.724;13.346;2022-08-01T03:51:44;96630.22;;;25.45;59.91
51123;BME280;37162;41.724;13.346;2022-08-01T03:54:14;96623.47;;;25.42;59.60
51123;BME280;37162;41.724;13.346;2022-08-01T03:56:41;96632.13;;;25.44;59.57
51123;BME280;37162;41.724;13.346;2022-08-01T03:59:10;96634.03;;;25.44;59.77
51123;BME280;37162;41.724;13.346;2022-08-01T04:01:36;96632.72;;;25.41;59.68
51123;BME280;37162;41.724;13.346;2022-08-01T04:04:08;96638.38;;;25.45;60.11
51123;BME280;37162;41.724;13.346;2022-08-01T04:06:37;96641.09;;;25.45;60.17
51123;BME280;37162;41.724;13.346;2022-08-01T04:09:03;96643.00;;;25.44;60.15
51123;BME280;37162;41.724;13.346;2022-08-01T04:11:32;96637.56;;;25.44;59.87
51123;BME280;37162;41.724;13.346;2022-08-01T04:13:58;96640.59;;;25.43;59.87
51123;BME280;37162;41.724;13.346;2022-08-01T04:16:23;96638.69;;;25.43;59.66
51123;BME280;37162;41.724;13.346;2022-08-01T04:18:49;96636.25;;;25.42;59.60
51123;BME280;37162;41.724;13.346;2022-08-01T04:21:18;96642.50;;;25.42;59.77
51123;BME280;37162;41.724;13.346;2022-08-01T04:23:46;96643.59;;;25.41;59.38
51123;BME280;37162;41.724;13.346;2022-08-01T04:26:13;96639.25;;;25.40;59.30
51123;BME280;37162;41.724;13.346;2022-08-01T04:28:40;96649.84;;;25.42;59.47
51123;BME280;37162;41.724;13.346;2022-08-01T04:31:09;96646.03;;;25.43;59.60
51123;BME280;37162;41.724;13.346;2022-08-01T04:33:38;96647.13;;;25.42;59.49
51123;BME280;37162;41.724;13.346;2022-08-01T04:36:06;96647.13;;;25.42;59.60
51123;BME280;37162;41.724;13.346;2022-08-01T04:38:34;96646.09;;;25.38;59.54
51123;BME280;37162;41.724;13.346;2022-08-01T04:41:02;96633.06;;;25.35;59.66
51123;BME280;37162;41.724;13.346;2022-08-01T04:43:28;96654.75;;;25.40;59.39
51123;BME280;37162;41.724;13.346;2022-08-01T04:45:54;96650.97;;;25.41;59.38
51123;BME280;37162;41.724;13.346;2022-08-01T04:48:21;96642.81;;;25.41;58.99
51123;BME280;37162;41.724;13.346;2022-08-01T04:50:47;96643.59;;;25.41;58.89
51123;BME280;37162;41.724;13.346;2022-08-01T04:53:17;96643.31;;;25.43;59.00
51123;BME280;37162;41.724;13.346;2022-08-01T04:55:44;96643.31;;;25.43;58.94
51123;BME280;37162;41.724;13.346;2022-08-01T04:58:10;96645.72;;;25.44;59.06
51123;BME280;37162;41.724;13.346;2022-08-01T05:00:36;96642.50;;;25.42;58.34
51123;BME280;37162;41.724;13.346;2022-08-01T05:03:02;96653.09;;;25.44;58.70
51123;BME280;37162;41.724;13.346;2022-08-01T05:05:27;96645.28;;;25.37;58.51
51123;BME280;37162;41.724;13.346;2022-08-01T05:07:53;96654.69;;;25.45;58.43
51123;BME280;37162;41.724;13.346;2022-08-01T05:10:18;96656.09;;;25.42;58.22
51123;BME280;37162;41.724;13.346;2022-08-01T05:12:44;96658.81;;;25.42;57.16
51123;BME280;37162;41.724;13.346;2022-08-01T05:15:09;96647.19;;;25.37;57.63
51123;BME280;37162;41.724;13.346;2022-08-01T05:17:38;96653.69;;;25.41;56.99
51123;BME280;37162;41.724;13.346;2022-08-01T05:20:04;96659.63;;;25.43;56.96
51123;BME280;37162;41.724;13.346;2022-08-01T05:22:31;96653.16;;;25.39;57.04
51123;BME280;37162;41.724;13.346;2022-08-01T05:24:57;96655.00;;;25.43;57.41
51123;BME280;37162;41.724;13.346;2022-08-01T05:27:22;96660.13;;;25.45;57.46
51123;BME280;37162;41.724;13.346;2022-08-01T05:29:48;96663.47;;;25.42;56.44
51123;BME280;37162;41.724;13.346;2022-08-01T05:32:13;96670.50;;;25.43;56.78
51123;BME280;37162;41.724;13.346;2022-08-01T05:34:39;96654.25;;;25.38;56.99
51123;BME280;37162;41.724;13.346;2022-08-01T05:37:04;96652.91;;;25.35;57.25
51123;BME280;37162;41.724;13.346;2022-08-01T05:39:30;96672.44;;;25.42;55.71
51123;BME280;37162;41.724;13.346;2022-08-01T05:41:55;96676.47;;;25.45;56.27
51123;BME280;37162;41.724;13.346;2022-08-01T05:44:21;96671.84;;;25.45;56.15
51123;BME280;37162;41.724;13.346;2022-08-01T05:46:46;96669.13;;;25.45;56.94
51123;BME280;37162;41.724;13.346;2022-08-01T05:49:11;96675.09;;;25.47;56.79
51123;BME280;37162;41.724;13.346;2022-08-01T05:51:37;96670.22;;;25.44;57.17
51123;BME280;37162;41.724;13.346;2022-08-01T05:54:03;96669.94;;;25.46;56.55
51123;BME280;37162;41.724;13.346;2022-08-01T05:56:28;96666.41;;;25.45;55.92
51123;BME280;37162;41.724;13.346;2022-08-01T05:58:54;96677.81;;;25.47;54.94
51123;BME280;37162;41.724;13.346;2022-08-01T06:01:19;96668.59;;;25.43;55.10
51123;BME280;37162;41.724;13.346;2022-08-01T06:03:45;96681.34;;;25.48;52.90
51123;BME280;37162;41.724;13.346;2022-08-01T06:06:11;96679.41;;;25.48;53.41
51123;BME280;37162;41.724;13.346;2022-08-01T06:08:36;96689.13;;;25.55;53.46
51123;BME280;37162;41.724;13.346;2022-08-01T06:11:03;96682.88;;;25.54;52.45
51123;BME280;37162;41.724;13.346;2022-08-01T06:13:28;96682.63;;;25.56;52.54
51123;BME280;37162;41.724;13.346;2022-08-01T06:15:54;96686.66;;;25.58;53.13
51123;BME280;37162;41.724;13.346;2022-08-01T06:18:19;96695.09;;;25.57;51.52
51123;BME280;37162;41.724;13.346;2022-08-01T06:20:55;96692.91;;;25.59;52.83
51123;BME280;37162;41.724;13.346;2022-08-01T06:23:21;96691.81;;;25.60;53.02
51123;BME280;37162;41.724;13.346;2022-08-01T06:25:47;96694.53;;;25.60;53.22
51123;BME280;37162;41.724;13.346;2022-08-01T06:28:12;96697.53;;;25.58;52.72
51123;BME280;37162;41.724;13.346;2022-08-01T06:30:38;96693.13;;;25.62;53.74
51123;BME280;37162;41.724;13.346;2022-08-01T06:33:03;96696.66;;;25.63;53.80
51123;BME280;37162;41.724;13.346;2022-08-01T06:35:30;96695.34;;;25.60;51.74
51123;BME280;37162;41.724;13.346;2022-08-01T06:37:57;96700.72;;;25.65;53.67
51123;BME280;37162;41.724;13.346;2022-08-01T06:40:23;96695.63;;;25.59;49.64
51123;BME280;37162;41.724;13.346;2022-08-01T06:42:48;96706.22;;;25.60;48.29
51123;BME280;37162;41.724;13.346;2022-08-01T06:45:14;96702.63;;;25.65;50.45
51123;BME280;37162;41.724;13.346;2022-08-01T06:47:41;96703.09;;;25.72;53.75
51123;BME280;37162;41.724;13.346;2022-08-01T06:50:08;96713.22;;;25.66;51.68
51123;BME280;37162;41.724;13.346;2022-08-01T06:52:34;96707.47;;;25.68;52.49
51123;BME280;37162;41.724;13.346;2022-08-01T06:55:00;96706.22;;;25.60;52.48
51123;BME280;37162;41.724;13.346;2022-08-01T06:57:26;96712.34;;;25.71;53.54
51123;BME280;37162;41.724;13.346;2022-08-01T06:59:52;96715.38;;;25.69;52.82
51123;BME280;37162;41.724;13.346;2022-08-01T07:02:18;96712.59;;;25.74;54.58
51123;BME280;37162;41.724;13.346;2022-08-01T07:04:43;96714.78;;;25.72;51.74
51123;BME280;37162;41.724;13.346;2022-08-01T07:07:09;96713.13;;;25.77;53.44
51123;BME280;37162;41.724;13.346;2022-08-01T07:09:34;96710.34;;;25.82;55.90
51123;BME280;37162;41.724;13.346;2022-08-01T07:12:00;96706.81;;;25.81;57.17
51123;BME280;37162;41.724;13.346;2022-08-01T07:14:25;96712.81;;;25.78;56.34
51123;BME280;37162;41.724;13.346;2022-08-01T07:16:51;96710.94;;;25.73;57.31
51123;BME280;37162;41.724;13.346;2022-08-01T07:19:17;96704.75;;;25.68;53.27
51123;BME280;37162;41.724;13.346;2022-08-01T07:21:43;96707.09;;;25.80;55.44
51123;BME280;37162;41.724;13.346;2022-08-01T07:24:10;96707.09;;;25.80;55.80
51123;BME280;37162;41.724;13.346;2022-08-01T07:26:43;96709.22;;;25.83;57.49
51123;BME280;37162;41.724;13.346;2022-08-01T07:29:09;96708.41;;;25.82;57.03
51123;BME280;37162;41.724;13.346;2022-08-01T07:31:34;96694.59;;;25.79;57.56
51123;BME280;37162;41.724;13.346;2022-08-01T07:33:59;96704.97;;;25.77;56.63
51123;BME280;37162;41.724;13.346;2022-08-01T07:36:25;96707.63;;;25.82;57.83
51123;BME280;37162;41.724;13.346;2022-08-01T07:38:50;96701.06;;;25.83;57.85
51123;BME280;37162;41.724;13.346;2022-08-01T07:41:16;96698.72;;;25.76;54.67
51123;BME280;37162;41.724;13.346;2022-08-01T07:43:41;96701.06;;;25.83;57.44
51123;BME280;37162;41.724;13.346;2022-08-01T07:46:07;96697.59;;;25.77;56.99
51123;BME280;37162;41.724;13.346;2022-08-01T07:48:32;96699.75;;;25.80;57.50
51123;BME280;37162;41.724;13.346;2022-08-01T07:50:58;96704.03;;;25.86;57.67
51123;BME280;37162;41.724;13.346;2022-08-01T07:53:23;96696.47;;;25.83;58.01
51123;BME280;37162;41.724;13.346;2022-08-01T07:55:49;96706.75;;;25.86;58.17
51123;BME280;37162;41.724;13.346;2022-08-01T07:58:15;96704.09;;;25.81;55.79
51123;BME280;37162;41.724;13.346;2022-08-01T08:00:40;96705.94;;;25.86;52.58
51123;BME280;37162;41.724;13.346;2022-08-01T08:03:06;96705.78;;;25.96;55.40
51123;BME280;37162;41.724;13.346;2022-08-01T08:05:31;96688.97;;;25.94;56.06
51123;BME280;37162;41.724;13.346;2022-08-01T08:08:09;96710.91;;;26.03;56.17
51123;BME280;37162;41.724;13.346;2022-08-01T08:10:35;96693.81;;;25.97;56.88
51123;BME280;37162;41.724;13.346;2022-08-01T08:13:01;96688.97;;;25.94;57.24
51123;BME280;37162;41.724;13.346;2022-08-01T08:15:28;96700.28;;;26.01;57.59
51123;BME280;37162;41.724;13.346;2022-08-01T08:17:53;96697.88;;;25.99;57.78
51123;BME280;37162;41.724;13.346;2022-08-01T08:20:19;96683.84;;;25.87;57.73
51123;BME280;37162;41.724;13.346;2022-08-01T08:22:50;96700.09;;;25.97;58.06
51123;BME280;37162;41.724;13.346;2022-08-01T08:25:15;96693.81;;;25.97;57.83
51123;BME280;37162;41.724;13.346;2022-08-01T08:27:41;96696.53;;;25.97;57.99
51123;BME280;37162;41.724;13.346;2022-08-01T08:30:06;96696.53;;;25.97;58.22
51123;BME280;37162;41.724;13.346;2022-08-01T08:32:36;96690.28;;;25.96;58.13
51123;BME280;37162;41.724;13.346;2022-08-01T08:35:02;96698.16;;;25.98;58.06
51123;BME280;37162;41.724;13.346;2022-08-01T08:37:28;96691.94;;;25.92;57.96
51123;BME280;37162;41.724;13.346;2022-08-01T08:39:53;96685.94;;;25.95;58.03
51123;BME280;37162;41.724;13.346;2022-08-01T08:42:18;96693.53;;;25.98;57.92
51123;BME280;37162;41.724;13.346;2022-08-01T08:44:44;96694.34;;;25.99;58.25
51123;BME280;37162;41.724;13.346;2022-08-01T08:47:14;96687.78;;;26.00;58.19
51123;BME280;37162;41.724;13.346;2022-08-01T08:49:42;96660.31;;;25.78;58.38
51123;BME280;37162;41.724;13.346;2022-08-01T08:52:08;96696.19;;;26.04;58.35
51123;BME280;37162;41.724;13.346;2022-08-01T08:54:36;96695.06;;;26.05;58.07
51123;BME280;37162;41.724;13.346;2022-08-01T08:57:02;96686.41;;;26.03;57.75
51123;BME280;37162;41.724;13.346;2022-08-01T08:59:28;96691.78;;;26.08;57.68
51123;BME280;37162;41.724;13.346;2022-08-01T09:01:53;96698.25;;;26.12;57.93
51123;BME280;37162;41.724;13.346;2022-08-01T09:04:21;96671.69;;;26.04;58.07
51123;BME280;37162;41.724;13.346;2022-08-01T09:06:48;96684.03;;;26.15;58.12
51123;BME280;37162;41.724;13.346;2022-08-01T09:09:13;96684.91;;;26.10;58.07
51123;BME280;37162;41.724;13.346;2022-08-01T09:11:38;96694.66;;;26.16;57.43
51123;BME280;37162;41.724;13.346;2022-08-01T09:16:31;96688.31;;;26.21;57.88
51123;BME280;37162;41.724;13.346;2022-08-01T09:19:26;96689.63;;;26.23;52.47
51123;BME280;37162;41.724;13.346;2022-08-01T09:22:01;96681.16;;;26.44;53.69
51123;BME280;37162;41.724;13.346;2022-08-01T09:24:29;96676.66;;;26.53;55.73
51123;BME280;37162;41.724;13.346;2022-08-01T09:26:55;96682.91;;;26.54;55.90
51123;BME280;37162;41.724;13.346;2022-08-01T09:29:26;96686.50;;;26.54;55.87
51123;BME280;37162;41.724;13.346;2022-08-01T09:31:58;96669.59;;;26.52;56.41
51123;BME280;37162;41.724;13.346;2022-08-01T09:34:30;96669.09;;;26.50;56.29
51123;BME280;37162;41.724;13.346;2022-08-01T09:37:00;96667.50;;;26.49;56.65
51123;BME280;37162;41.724;13.346;2022-08-01T09:39:31;96666.66;;;26.48;56.67
51123;BME280;37162;41.724;13.346;2022-08-01T09:42:00;96676.75;;;26.48;56.80
51123;BME280;37162;41.724;13.346;2022-08-01T09:44:43;96655.91;;;26.38;56.64
51123;BME280;37162;41.724;13.346;2022-08-01T09:47:09;96659.59;;;26.47;56.60
51123;BME280;37162;41.724;13.346;2022-08-01T09:49:37;96665.56;;;26.49;56.67
51123;BME280;37162;41.724;13.346;2022-08-01T09:52:29;96659.00;;;26.50;56.33
51123;BME280;37162;41.724;13.346;2022-08-01T09:54:58;96660.63;;;26.52;56.62
51123;BME280;37162;41.724;13.346;2022-08-01T09:57:25;96653.25;;;26.52;56.33
51123;BME280;37162;41.724;13.346;2022-08-01T09:59:53;96648.41;;;26.49;56.66
51123;BME280;37162;41.724;13.346;2022-08-01T10:02:38;96655.66;;;26.54;56.67
51123;BME280;37162;41.724;13.346;2022-08-01T10:05:10;96640.25;;;26.49;56.28
51123;BME280;37162;41.724;13.346;2022-08-01T10:07:54;96651.56;;;26.56;56.37
51123;BME280;37162;41.724;13.346;2022-08-01T10:10:20;96634.19;;;26.52;56.65
51123;BME280;37162;41.724;13.346;2022-08-01T10:12:45;96619.84;;;26.46;56.22
51123;BME280;37162;41.724;13.346;2022-08-01T10:15:16;96635.44;;;26.60;56.12
51123;BME280;37162;41.724;13.346;2022-08-01T10:17:47;96635.13;;;26.61;56.38
51123;BME280;37162;41.724;13.346;2022-08-01T10:20:20;96629.38;;;26.63;56.22
51123;BME280;37162;41.724;13.346;2022-08-01T10:22:46;96613.19;;;26.53;56.35
51123;BME280;37162;41.724;13.346;2022-08-01T10:25:13;96628.88;;;26.61;55.87
51123;BME280;37162;41.724;13.346;2022-08-01T10:27:42;96629.59;;;26.66;56.12
51123;BME280;37162;41.724;13.346;2022-08-01T10:30:11;96615.31;;;26.56;55.90
51123;BME280;37162;41.724;13.346;2022-08-01T10:32:37;96615.16;;;26.66;55.79
51123;BME280;37162;41.724;13.346;2022-08-01T10:35:06;96620.50;;;26.71;54.00
51123;BME280;37162;41.724;13.346;2022-08-01T10:37:34;96619.63;;;26.89;52.09
51123;BME280;37162;41.724;13.346;2022-08-01T10:40:01;96624.91;;;26.99;54.64
51123;BME280;37162;41.724;13.346;2022-08-01T10:42:26;96613.50;;;26.97;54.72
51123;BME280;37162;41.724;13.346;2022-08-01T10:44:56;96584.19;;;26.75;54.64
51123;BME280;37162;41.724;13.346;2022-08-01T10:47:30;96623.38;;;26.93;54.82
51123;BME280;37162;41.724;13.346;2022-08-01T10:50:13;96611.16;;;26.91;54.86
51123;BME280;37162;41.724;13.346;2022-08-01T10:52:41;96604.41;;;26.88;55.03
51123;BME280;37162;41.724;13.346;2022-08-01T10:55:08;96601.16;;;26.86;55.02
51123;BME280;37162;41.724;13.346;2022-08-01T10:57:47;96603.06;;;26.86;54.98
51123;BME280;37162;41.724;13.346;2022-08-01T11:00:22;96600.16;;;26.82;52.49
51123;BME280;37162;41.724;13.346;2022-08-01T11:02:58;96613.38;;;26.89;54.72
51123;BME280;37162;41.724;13.346;2022-08-01T11:05:27;96603.28;;;26.89;54.63
51123;BME280;37162;41.724;13.346;2022-08-01T11:07:54;96604.09;;;26.90;54.73
51123;BME280;37162;41.724;13.346;2022-08-01T11:13:04;96600.88;;;26.88;54.39
51123;BME280;37162;41.724;13.346;2022-08-01T11:15:33;96588.03;;;26.88;54.73
51123;BME280;37162;41.724;13.346;2022-08-01T11:18:01;96587.22;;;26.88;54.76
51123;BME280;37162;41.724;13.346;2022-08-01T11:20:36;96575.53;;;26.87;54.34
51123;BME280;37162;41.724;13.346;2022-08-01T11:30:44;96573.88;;;26.86;54.97
51123;BME280;37162;41.724;13.346;2022-08-01T11:33:11;96580.16;;;26.87;54.79
51123;BME280;37162;41.724;13.346;2022-08-01T11:36:16;96566.00;;;26.85;54.69
51123;BME280;37162;41.724;13.346;2022-08-01T11:38:42;96567.94;;;26.84;54.56
51123;BME280;37162;41.724;13.346;2022-08-01T11:41:27;96561.38;;;26.85;54.73
51123;BME280;37162;41.724;13.346;2022-08-01T11:43:55;96566.81;;;26.85;54.84
51123;BME280;37162;41.724;13.346;2022-08-01T11:54:39;96553.19;;;26.85;54.51
51123;BME280;37162;41.724;13.346;2022-08-01T11:57:06;96551.25;;;26.86;54.20
51123;BME280;37162;41.724;13.346;2022-08-01T11:59:43;96544.50;;;26.83;51.64
51123;BME280;37162;41.724;13.346;2022-08-01T12:04:59;96536.03;;;26.98;45.36
51123;BME280;37162;41.724;13.346;2022-08-01T12:07:27;96557.97;;;27.35;51.76
51123;BME280;37162;41.724;13.346;2022-08-01T12:10:10;96542.63;;;27.25;52.16
51123;BME280;37162;41.724;13.346;2022-08-01T12:12:43;96545.94;;;27.22;52.26
51123;BME280;37162;41.724;13.346;2022-08-01T12:15:09;96544.44;;;27.16;52.72
51123;BME280;37162;41.724;13.346;2022-08-01T12:17:38;96541.81;;;27.11;52.44
51123;BME280;37162;41.724;13.346;2022-08-01T12:20:09;96534.63;;;27.01;52.78
51123;BME280;37162;41.724;13.346;2022-08-01T12:22:37;96541.00;;;26.96;53.41
51123;BME280;37162;41.724;13.346;2022-08-01T12:25:14;96534.53;;;26.92;53.18
51123;BME280;37162;41.724;13.346;2022-08-01T12:27:43;96541.91;;;26.92;53.23
51123;BME280;37162;41.724;13.346;2022-08-01T12:30:11;96539.75;;;26.89;53.61
51123;BME280;37162;41.724;13.346;2022-08-01T12:32:39;96530.56;;;26.85;53.30
51123;BME280;37162;41.724;13.346;2022-08-01T12:37:32;96521.38;;;26.81;53.76
51123;BME280;37162;41.724;13.346;2022-08-01T12:39:59;96519.34;;;26.86;53.50
51123;BME280;37162;41.724;13.346;2022-08-01T12:42:25;96525.94;;;26.85;53.59
51123;BME280;37162;41.724;13.346;2022-08-01T12:44:51;96526.72;;;26.86;53.54
51123;BME280;37162;41.724;13.346;2022-08-01T12:47:18;96522.41;;;26.85;53.42
51123;BME280;37162;41.724;13.346;2022-08-01T12:49:45;96523.81;;;26.82;53.40
51123;BME280;37162;41.724;13.346;2022-08-01T12:52:12;96526.25;;;26.84;53.59
51123;BME280;37162;41.724;13.346;2022-08-01T12:57:28;96533.09;;;26.81;53.81
51123;BME280;37162;41.724;13.346;2022-08-01T13:00:14;96519.78;;;26.80;53.61
51123;BME280;37162;41.724;13.346;2022-08-01T13:02:41;96514.41;;;26.74;53.54
51123;BME280;37162;41.724;13.346;2022-08-01T13:05:08;96494.44;;;26.65;50.70
51123;BME280;37162;41.724;13.346;2022-08-01T13:07:36;96514.53;;;26.83;52.98
51123;BME280;37162;41.724;13.346;2022-08-01T13:10:03;96510.47;;;26.81;53.35
51123;BME280;37162;41.724;13.346;2022-08-01T13:12:29;96509.06;;;26.83;53.45
51123;BME280;37162;41.724;13.346;2022-08-01T13:14:54;96508.56;;;26.81;53.17
51123;BME280;37162;41.724;13.346;2022-08-01T13:17:35;96507.25;;;26.79;53.41
51123;BME280;37162;41.724;13.346;2022-08-01T13:20:03;96495.13;;;26.71;53.50
51123;BME280;37162;41.724;13.346;2022-08-01T13:22:37;96506.25;;;26.74;53.88
51123;BME280;37162;41.724;13.346;2022-08-01T13:25:14;96502.19;;;26.72;53.86
51123;BME280;37162;41.724;13.346;2022-08-01T13:27:40;96498.97;;;26.70;54.11
51123;BME280;37162;41.724;13.346;2022-08-01T13:30:17;96494.91;;;26.67;54.02
51123;BME280;37162;41.724;13.346;2022-08-01T13:32:53;96491.69;;;26.65;54.05
51123;BME280;37162;41.724;13.346;2022-08-01T13:35:21;96493.94;;;26.63;54.27
51123;BME280;37162;41.724;13.346;2022-08-01T13:37:47;96476.47;;;26.50;54.19
51123;BME280;37162;41.724;13.346;2022-08-01T13:40:25;96485.25;;;26.61;54.25